sensor_id;sensor_type;location;lat;lon;timestamp;pressure;altitude;pressure_sealevel;temperature;humidity
79686;BME280;69153;47.918;11.428;2023-11-21T00:00:32;94656.53;;;10.51;52.82
79686;BME280;69153;47.918;11.428;2023-11-21T00:02:58;94649.97;;;10.43;52.10
79686;BME280;69153;47.918;11.428;2023-11-21T00:05:23;94649.41;;;10.48;53.08
79686;BME280;69153;47.918;11.428;2023-11-21T00:07:48;94641.78;;;10.50;53.18
79686;BME280;69153;47.918;11.428;2023-11-21T00:10:14;94635.63;;;10.53;53.03
79686;BME280;69153;47.918;11.428;2023-11-21T00:12:41;94640.75;;;10.48;53.16
79686;BME280;69153;47.918;11.428;2023-11-21T00:15:08;94635.66;;;10.41;53.65
79686;BME280;69153;47.918;11.428;2023-11-21T00:17:37;94623.72;;;10.36;53.73
79686;BME280;69153;47.918;11.428;2023-11-21T00:20:04;94632.50;;;10.33;54.07
79686;BME280;69153;47.918;11.428;2023-11-21T00:22:34;94626.59;;;10.29;53.74
79686;BME280;69153;47.918;11.428;2023-11-21T00:25:01;94632.00;;;10.25;53.90
79686;BME280;69153;47.918;11.428;2023-11-21T00:27:26;94631.28;;;9.87;55.02
79686;BME280;69153;47.918;11.428;2023-11-21T00:29:52;94632.56;;;9.70;55.73
79686;BME280;69153;47.918;11.428;2023-11-21T00:32:17;94627.13;;;9.35;56.89
79686;BME280;69153;47.918;11.428;2023-11-21T00:34:43;94630.69;;;9.03;57.93
79686;BME280;69153;47.918;11.428;2023-11-21T00:37:08;94627.34;;;9.28;57.37
79686;BME280;69153;47.918;11.428;2023-11-21T00:39:33;94620.41;;;9.59;56.79
79686;BME280;69153;47.918;11.428;2023-11-21T00:42:00;94619.97;;;9.74;55.99
79686;BME280;69153;47.918;11.428;2023-11-21T00:44:26;94617.94;;;9.78;55.97
79686;BME280;69153;47.918;11.428;2023-11-21T00:46:51;94614.03;;;9.82;55.84
79686;BME280;69153;47.918;11.428;2023-11-21T00:49:16;94620.59;;;9.90;55.71
79686;BME280;69153;47.918;11.428;2023-11-21T00:51:42;94608.94;;;9.88;56.30
79686;BME280;69153;47.918;11.428;2023-11-21T00:54:07;94619.22;;;9.98;55.91
79686;BME280;69153;47.918;11.428;2023-11-21T00:56:33;94617.19;;;10.02;55.84
79686;BME280;69153;47.918;11.428;2023-11-21T00:58:59;94615.69;;;10.01;55.76
79686;BME280;69153;47.918;11.428;2023-11-21T01:01:24;94617.41;;;10.08;55.51
79686;BME280;69153;47.918;11.428;2023-11-21T01:03:50;94619.50;;;10.00;56.00
79686;BME280;69153;47.918;11.428;2023-11-21T01:06:16;94618.16;;;9.96;56.08
79686;BME280;69153;47.918;11.428;2023-11-21T01:08:42;94614.78;;;9.95;55.78
79686;BME280;69153;47.918;11.428;2023-11-21T01:11:07;94614.03;;;9.95;55.91
79686;BME280;69153;47.918;11.428;2023-11-21T01:13:34;94605.13;;;9.89;56.06
79686;BME280;69153;47.918;11.428;2023-11-21T01:16:00;94605.25;;;9.85;56.06
79686;BME280;69153;47.918;11.428;2023-11-21T01:18:26;94598.28;;;9.79;56.27
79686;BME280;69153;47.918;11.428;2023-11-21T01:20:51;94605.38;;;9.82;56.18
79686;BME280;69153;47.918;11.428;2023-11-21T01:23:19;94600.28;;;9.75;56.59
79686;BME280;69153;47.918;11.428;2023-11-21T01:25:44;94604.84;;;9.61;57.14
79686;BME280;69153;47.918;11.428;2023-11-21T01:28:10;94601.44;;;9.61;57.10
79686;BME280;69153;47.918;11.428;2023-11-21T01:30:35;94600.69;;;9.48;57.34
79686;BME280;69153;47.918;11.428;2023-11-21T01:33:01;94599.75;;;9.42;57.71
79686;BME280;69153;47.918;11.428;2023-11-21T01:35:26;94608.03;;;9.44;57.57
79686;BME280;69153;47.918;11.428;2023-11-21T01:37:52;94608.53;;;9.39;57.52
79686;BME280;69153;47.918;11.428;2023-11-21T01:40:17;94610.13;;;9.36;57.45
79686;BME280;69153;47.918;11.428;2023-11-21T01:42:43;94612.47;;;9.34;57.80
79686;BME280;69153;47.918;11.428;2023-11-21T01:45:10;94608.00;;;9.31;57.95
79686;BME280;69153;47.918;11.428;2023-11-21T01:47:36;94605.56;;;9.24;58.21
79686;BME280;69153;47.918;11.428;2023-11-21T01:50:02;94608.00;;;9.18;58.52
79686;BME280;69153;47.918;11.428;2023-11-21T01:52:30;94613.69;;;9.17;58.99
79686;BME280;69153;47.918;11.428;2023-11-21T01:54:59;94624.69;;;9.15;58.75
79686;BME280;69153;47.918;11.428;2023-11-21T01:57:25;94615.59;;;9.16;59.27
79686;BME280;69153;47.918;11.428;2023-11-21T01:59:54;94612.75;;;9.23;58.76
79686;BME280;69153;47.918;11.428;2023-11-21T02:02:19;94610.09;;;9.23;58.87
79686;BME280;69153;47.918;11.428;2023-11-21T02:04:45;94609.97;;;9.02;59.43
79686;BME280;69153;47.918;11.428;2023-11-21T02:07:10;94608.47;;;9.01;59.62
79686;BME280;69153;47.918;11.428;2023-11-21T02:09:36;94610.81;;;9.11;59.38
79686;BME280;69153;47.918;11.428;2023-11-21T02:12:04;94605.78;;;9.17;59.38
79686;BME280;69153;47.918;11.428;2023-11-21T02:14:30;94610.09;;;9.23;59.06
79686;BME280;69153;47.918;11.428;2023-11-21T02:16:57;94619.31;;;9.31;58.71
79686;BME280;69153;47.918;11.428;2023-11-21T02:19:23;94618.78;;;9.37;58.38
79686;BME280;69153;47.918;11.428;2023-11-21T02:21:53;94612.97;;;9.42;58.28
79686;BME280;69153;47.918;11.428;2023-11-21T02:24:23;94614.16;;;9.41;58.47
79686;BME280;69153;47.918;11.428;2023-11-21T02:26:49;94612.47;;;9.34;58.19
79686;BME280;69153;47.918;11.428;2023-11-21T02:29:18;94614.97;;;9.38;58.40
79686;BME280;69153;47.918;11.428;2023-11-21T02:31:51;94611.19;;;9.39;58.31
79686;BME280;69153;47.918;11.428;2023-11-21T02:34:17;94616.28;;;9.46;58.13
79686;BME280;69153;47.918;11.428;2023-11-21T02:36:44;94617.75;;;9.47;58.17
79686;BME280;69153;47.918;11.428;2023-11-21T02:39:10;94611.59;;;9.50;57.92
79686;BME280;69153;47.918;11.428;2023-11-21T02:41:37;94610.34;;;9.54;57.72
79686;BME280;69153;47.918;11.428;2023-11-21T02:44:03;94609.50;;;9.57;57.79
79686;BME280;69153;47.918;11.428;2023-11-21T02:46:29;94611.81;;;9.55;57.48
79686;BME280;69153;47.918;11.428;2023-11-21T02:48:54;94604.63;;;9.56;57.77
79686;BME280;69153;47.918;11.428;2023-11-21T02:51:20;94604.22;;;9.57;57.80
79686;BME280;69153;47.918;11.428;2023-11-21T02:53:46;94601.56;;;9.57;57.46
79686;BME280;69153;47.918;11.428;2023-11-21T02:56:12;94602.19;;;9.49;58.02
79686;BME280;69153;47.918;11.428;2023-11-21T02:58:40;94601.56;;;9.45;58.17
79686;BME280;69153;47.918;11.428;2023-11-21T03:01:06;94596.47;;;9.50;58.25
79686;BME280;69153;47.918;11.428;2023-11-21T03:03:33;94602.31;;;9.58;58.01
79686;BME280;69153;47.918;11.428;2023-11-21T03:05:58;94600.50;;;9.55;58.23
79686;BME280;69153;47.918;11.428;2023-11-21T03:08:24;94601.78;;;9.50;58.38
79686;BME280;69153;47.918;11.428;2023-11-21T03:10:49;94599.88;;;9.51;58.61
79686;BME280;69153;47.918;11.428;2023-11-21T03:13:15;94602.09;;;9.52;58.41
79686;BME280;69153;47.918;11.428;2023-11-21T03:15:40;94593.84;;;9.38;59.57
79686;BME280;69153;47.918;11.428;2023-11-21T03:18:05;94596.88;;;9.23;60.21
79686;BME280;69153;47.918;11.428;2023-11-21T03:20:31;94596.47;;;9.25;60.31
79686;BME280;69153;47.918;11.428;2023-11-21T03:22:56;94598.69;;;9.26;60.53
79686;BME280;69153;47.918;11.428;2023-11-21T03:25:22;94594.69;;;9.35;60.40
79686;BME280;69153;47.918;11.428;2023-11-21T03:27:49;94592.56;;;9.42;60.41
79686;BME280;69153;47.918;11.428;2023-11-21T03:30:15;94585.38;;;9.55;59.47
79686;BME280;69153;47.918;11.428;2023-11-21T03:32:41;94587.38;;;9.51;60.08
79686;BME280;69153;47.918;11.428;2023-11-21T03:35:07;94592.25;;;9.53;60.44
79686;BME280;69153;47.918;11.428;2023-11-21T03:37:33;94590.03;;;9.51;60.00
79686;BME280;69153;47.918;11.428;2023-11-21T03:39:58;94599.25;;;9.47;59.97
79686;BME280;69153;47.918;11.428;2023-11-21T03:42:24;94594.25;;;9.49;59.35
79686;BME280;69153;47.918;11.428;2023-11-21T03:44:52;94598.69;;;9.52;59.79
79686;BME280;69153;47.918;11.428;2023-11-21T03:47:17;94595.41;;;9.48;59.71
79686;BME280;69153;47.918;11.428;2023-11-21T03:49:43;94591.63;;;9.49;59.75
79686;BME280;69153;47.918;11.428;2023-11-21T03:52:08;94594.81;;;9.44;60.29
79686;BME280;69153;47.918;11.428;2023-11-21T03:54:34;94597.13;;;9.42;60.48
79686;BME280;69153;47.918;11.428;2023-11-21T03:56:59;94594.81;;;9.44;60.51
79686;BME280;69153;47.918;11.428;2023-11-21T03:59:25;94599.25;;;9.47;60.35
79686;BME280;69153;47.918;11.428;2023-11-21T04:01:50;94587.47;;;9.48;60.59
79686;BME280;69153;47.918;11.428;2023-11-21T04:04:16;94597.53;;;9.53;60.29
79686;BME280;69153;47.918;11.428;2023-11-21T04:06:41;94591.41;;;9.56;60.53
79686;BME280;69153;47.918;11.428;2023-11-21T04:09:07;94590.25;;;9.57;60.20
79686;BME280;69153;47.918;11.428;2023-11-21T04:11:32;94589.09;;;9.58;60.62
79686;BME280;69153;47.918;11.428;2023-11-21T04:13:58;94584.97;;;9.57;60.73
79686;BME280;69153;47.918;11.428;2023-11-21T04:16:23;94584.22;;;9.56;61.23
79686;BME280;69153;47.918;11.428;2023-11-21T04:18:49;94579.88;;;9.62;60.45
79686;BME280;69153;47.918;11.428;2023-11-21T04:21:14;94589.09;;;9.58;60.78
79686;BME280;69153;47.918;11.428;2023-11-21T04:23:40;94588.66;;;9.47;61.61
79686;BME280;69153;47.918;11.428;2023-11-21T04:26:05;94584.13;;;9.47;61.72
79686;BME280;69153;47.918;11.428;2023-11-21T04:28:31;94586.22;;;9.52;61.58
79686;BME280;69153;47.918;11.428;2023-11-21T04:30:57;94594.47;;;9.54;61.43
79686;BME280;69153;47.918;11.428;2023-11-21T04:33:22;94592.78;;;9.60;61.37
79686;BME280;69153;47.918;11.428;2023-11-21T04:35:48;94595.53;;;9.57;62.09
79686;BME280;69153;47.918;11.428;2023-11-21T04:38:13;94592.47;;;9.58;61.71
79686;BME280;69153;47.918;11.428;2023-11-21T04:40:39;94597.13;;;9.67;61.20
79686;BME280;69153;47.918;11.428;2023-11-21T04:43:04;94597.13;;;9.67;61.94
79686;BME280;69153;47.918;11.428;2023-11-21T04:45:30;94604.81;;;9.74;60.70
79686;BME280;69153;47.918;11.428;2023-11-21T04:47:55;94599.00;;;9.79;60.98
79686;BME280;69153;47.918;11.428;2023-11-21T04:50:21;94612.66;;;9.65;61.37
79686;BME280;69153;47.918;11.428;2023-11-21T04:52:47;94605.69;;;9.71;61.26
79686;BME280;69153;47.918;11.428;2023-11-21T04:55:12;94607.91;;;9.73;61.04
79686;BME280;69153;47.918;11.428;2023-11-21T04:57:38;94608.34;;;9.71;60.60
79686;BME280;69153;47.918;11.428;2023-11-21T05:00:05;94613.63;;;9.84;60.41
79686;BME280;69153;47.918;11.428;2023-11-21T05:02:32;94607.78;;;9.89;60.13
79686;BME280;69153;47.918;11.428;2023-11-21T05:04:59;94609.25;;;9.90;60.08
79686;BME280;69153;47.918;11.428;2023-11-21T05:07:25;94614.03;;;9.95;60.16
79686;BME280;69153;47.918;11.428;2023-11-21T05:09:52;94622.47;;;10.02;59.92
79686;BME280;69153;47.918;11.428;2023-11-21T05:12:18;94619.72;;;10.06;60.07
79686;BME280;69153;47.918;11.428;2023-11-21T05:14:43;94615.91;;;10.07;59.62
79686;BME280;69153;47.918;11.428;2023-11-21T05:17:08;94613.91;;;10.11;59.41
79686;BME280;69153;47.918;11.428;2023-11-21T05:19:34;94619.06;;;10.15;59.52
79686;BME280;69153;47.918;11.428;2023-11-21T05:22:00;94623.31;;;10.12;59.67
79686;BME280;69153;47.918;11.428;2023-11-21T05:24:26;94622.81;;;9.92;60.22
79686;BME280;69153;47.918;11.428;2023-11-21T05:26:51;94613.72;;;9.55;61.46
79686;BME280;69153;47.918;11.428;2023-11-21T05:29:18;94620.06;;;9.32;61.93
79686;BME280;69153;47.918;11.428;2023-11-21T05:31:43;94619.31;;;9.31;61.15
79686;BME280;69153;47.918;11.428;2023-11-21T05:34:09;94611.81;;;9.43;61.89
79686;BME280;69153;47.918;11.428;2023-11-21T05:36:34;94611.50;;;9.53;61.12
79686;BME280;69153;47.918;11.428;2023-11-21T05:39:00;94617.13;;;9.55;61.10
79686;BME280;69153;47.918;11.428;2023-11-21T05:41:25;94617.13;;;9.55;60.80
79686;BME280;69153;47.918;11.428;2023-11-21T05:43:51;94615.31;;;9.65;61.50
79686;BME280;69153;47.918;11.428;2023-11-21T05:46:16;94619.00;;;9.80;60.59
79686;BME280;69153;47.918;11.428;2023-11-21T05:48:41;94624.72;;;9.91;60.63
79686;BME280;69153;47.918;11.428;2023-11-21T05:51:07;94625.69;;;9.97;60.13
79686;BME280;69153;47.918;11.428;2023-11-21T05:53:34;94631.91;;;10.03;59.72
79686;BME280;69153;47.918;11.428;2023-11-21T05:56:00;94632.00;;;10.00;59.58
79686;BME280;69153;47.918;11.428;2023-11-21T05:58:25;94627.16;;;9.98;59.77
79686;BME280;69153;47.918;11.428;2023-11-21T06:00:51;94630.41;;;10.02;60.36
79686;BME280;69153;47.918;11.428;2023-11-21T06:03:16;94634.13;;;10.05;60.24
79686;BME280;69153;47.918;11.428;2023-11-21T06:05:42;94629.66;;;10.02;60.31
79686;BME280;69153;47.918;11.428;2023-11-21T06:08:08;94639.00;;;10.07;60.52
79686;BME280;69153;47.918;11.428;2023-11-21T06:10:34;94634.53;;;10.03;60.38
79686;BME280;69153;47.918;11.428;2023-11-21T06:13:00;94639.84;;;10.03;60.47
79686;BME280;69153;47.918;11.428;2023-11-21T06:15:25;94633.38;;;10.04;59.74
79686;BME280;69153;47.918;11.428;2023-11-21T06:17:51;94637.00;;;9.98;60.50
79686;BME280;69153;47.918;11.428;2023-11-21T06:20:20;94637.84;;;9.95;59.76
79686;BME280;69153;47.918;11.428;2023-11-21T06:22:47;94639.00;;;9.94;60.02
79686;BME280;69153;47.918;11.428;2023-11-21T06:25:14;94638.47;;;9.99;60.36
79686;BME280;69153;47.918;11.428;2023-11-21T06:27:45;94644.81;;;9.89;60.34
79686;BME280;69153;47.918;11.428;2023-11-21T06:30:12;94647.88;;;9.87;60.46
79686;BME280;69153;47.918;11.428;2023-11-21T06:32:39;94648.22;;;9.77;60.55
79686;BME280;69153;47.918;11.428;2023-11-21T06:35:11;94649.06;;;9.86;60.77
79686;BME280;69153;47.918;11.428;2023-11-21T06:37:37;94651.91;;;9.92;60.69
79686;BME280;69153;47.918;11.428;2023-11-21T06:40:02;94649.28;;;9.92;60.79
79686;BME280;69153;47.918;11.428;2023-11-21T06:42:29;94653.09;;;9.78;61.17
79686;BME280;69153;47.918;11.428;2023-11-21T06:44:56;94650.34;;;9.82;60.80
79686;BME280;69153;47.918;11.428;2023-11-21T06:47:25;94648.22;;;9.77;61.48
79686;BME280;69153;47.918;11.428;2023-11-21T06:49:51;94657.63;;;9.65;61.70
79686;BME280;69153;47.918;11.428;2023-11-21T06:52:18;94658.25;;;9.44;63.15
79686;BME280;69153;47.918;11.428;2023-11-21T06:54:44;94668.03;;;9.18;64.18
79686;BME280;69153;47.918;11.428;2023-11-21T06:57:10;94674.66;;;9.10;64.70
79686;BME280;69153;47.918;11.428;2023-11-21T06:59:36;94668.00;;;9.05;65.07
79686;BME280;69153;47.918;11.428;2023-11-21T07:02:01;94677.66;;;9.24;64.80
79686;BME280;69153;47.918;11.428;2023-11-21T07:04:27;94679.00;;;9.45;64.04
79686;BME280;69153;47.918;11.428;2023-11-21T07:06:55;94674.56;;;9.67;63.40
79686;BME280;69153;47.918;11.428;2023-11-21T07:09:20;94683.16;;;9.72;63.32
79686;BME280;69153;47.918;11.428;2023-11-21T07:11:51;94677.63;;;9.79;63.10
79686;BME280;69153;47.918;11.428;2023-11-21T07:14:17;94684.31;;;9.83;62.48
79686;BME280;69153;47.918;11.428;2023-11-21T07:16:45;94686.63;;;9.94;62.08
79686;BME280;69153;47.918;11.428;2023-11-21T07:19:11;94687.69;;;9.96;62.12
79686;BME280;69153;47.918;11.428;2023-11-21T07:21:38;94689.50;;;9.99;62.12
79686;BME280;69153;47.918;11.428;2023-11-21T07:24:05;94686.63;;;9.94;62.35
79686;BME280;69153;47.918;11.428;2023-11-21T07:26:32;94689.28;;;9.94;62.45
79686;BME280;69153;47.918;11.428;2023-11-21T07:28:59;94694.16;;;9.95;62.72
79686;BME280;69153;47.918;11.428;2023-11-21T07:31:25;94690.13;;;10.03;62.49
79686;BME280;69153;47.918;11.428;2023-11-21T07:33:51;94696.47;;;10.06;61.82
79686;BME280;69153;47.918;11.428;2023-11-21T07:36:17;94699.13;;;10.06;62.29
79686;BME280;69153;47.918;11.428;2023-11-21T07:38:49;94702.41;;;9.97;62.17
79686;BME280;69153;47.918;11.428;2023-11-21T07:41:15;94705.81;;;9.98;62.51
79686;BME280;69153;47.918;11.428;2023-11-21T07:43:41;94706.84;;;10.00;62.50
79686;BME280;69153;47.918;11.428;2023-11-21T07:46:07;94693.94;;;10.02;62.00
79686;BME280;69153;47.918;11.428;2023-11-21T07:48:35;94694.91;;;9.96;62.26
79686;BME280;69153;47.918;11.428;2023-11-21T07:51:02;94694.56;;;9.94;62.21
79686;BME280;69153;47.918;11.428;2023-11-21T07:53:30;94693.09;;;9.93;62.08
79686;BME280;69153;47.918;11.428;2023-11-21T07:56:04;94695.97;;;9.98;62.34
79686;BME280;69153;47.918;11.428;2023-11-21T07:58:30;94693.59;;;10.00;62.61
79686;BME280;69153;47.918;11.428;2023-11-21T08:00:56;94695.63;;;10.09;62.47
79686;BME280;69153;47.918;11.428;2023-11-21T08:03:21;94692.44;;;10.14;62.47
79686;BME280;69153;47.918;11.428;2023-11-21T08:05:47;94703.69;;;10.18;62.14
79686;BME280;69153;47.918;11.428;2023-11-21T08:08:12;94699.88;;;10.07;62.50
79686;BME280;69153;47.918;11.428;2023-11-21T08:10:38;94697.63;;;9.67;63.54
79686;BME280;69153;47.918;11.428;2023-11-21T08:13:07;94706.81;;;9.62;63.90
79686;BME280;69153;47.918;11.428;2023-11-21T08:15:34;94698.69;;;9.70;64.11
79686;BME280;69153;47.918;11.428;2023-11-21T08:18:02;94701.66;;;9.84;63.53
79686;BME280;69153;47.918;11.428;2023-11-21T08:20:27;94706.53;;;9.86;63.78
79686;BME280;69153;47.918;11.428;2023-11-21T08:22:53;94703.78;;;10.02;63.24
79686;BME280;69153;47.918;11.428;2023-11-21T08:25:20;94705.81;;;10.11;62.72
79686;BME280;69153;47.918;11.428;2023-11-21T08:27:46;94707.50;;;9.92;61.86
79686;BME280;69153;47.918;11.428;2023-11-21T08:30:12;94712.84;;;9.63;63.85
79686;BME280;69153;47.918;11.428;2023-11-21T08:32:39;94706.09;;;9.75;63.81
79686;BME280;69153;47.918;11.428;2023-11-21T08:35:04;94708.88;;;9.84;63.65
79686;BME280;69153;47.918;11.428;2023-11-21T08:37:31;94710.88;;;9.92;63.08
79686;BME280;69153;47.918;11.428;2023-11-21T08:39:58;94720.81;;;10.14;63.36
79686;BME280;69153;47.918;11.428;2023-11-21T08:42:27;94719.16;;;10.32;62.67
79686;BME280;69153;47.918;11.428;2023-11-21T08:44:55;94719.22;;;10.42;61.96
79686;BME280;69153;47.918;11.428;2023-11-21T08:47:23;94714.47;;;10.49;60.93
79686;BME280;69153;47.918;11.428;2023-11-21T08:49:50;94720.50;;;10.50;59.90
79686;BME280;69153;47.918;11.428;2023-11-21T08:52:18;94705.88;;;10.45;59.11
79686;BME280;69153;47.918;11.428;2023-11-21T08:54:44;94710.13;;;10.43;58.03
79686;BME280;69153;47.918;11.428;2023-11-21T08:57:10;94704.31;;;10.48;58.11
79686;BME280;69153;47.918;11.428;2023-11-21T08:59:36;94711.81;;;10.49;58.66
79686;BME280;69153;47.918;11.428;2023-11-21T09:02:02;94715.00;;;10.44;58.08
79686;BME280;69153;47.918;11.428;2023-11-21T09:04:27;94712.56;;;10.50;58.48
79686;BME280;69153;47.918;11.428;2023-11-21T09:06:52;94715.00;;;10.44;58.47
79686;BME280;69153;47.918;11.428;2023-11-21T09:09:18;94710.34;;;10.48;59.07
79686;BME280;69153;47.918;11.428;2023-11-21T09:11:45;94719.34;;;10.51;58.54
79686;BME280;69153;47.918;11.428;2023-11-21T09:14:11;94722.94;;;10.44;58.64
79686;BME280;69153;47.918;11.428;2023-11-21T09:16:40;94732.59;;;10.38;58.39
79686;BME280;69153;47.918;11.428;2023-11-21T09:19:05;94731.00;;;10.41;58.52
79686;BME280;69153;47.918;11.428;2023-11-21T09:21:31;94737.25;;;10.47;58.41
79686;BME280;69153;47.918;11.428;2023-11-21T09:23:56;94739.56;;;10.45;58.93
79686;BME280;69153;47.918;11.428;2023-11-21T09:26:21;94743.28;;;10.47;58.21
79686;BME280;69153;47.918;11.428;2023-11-21T09:28:47;94741.91;;;10.43;58.22
79686;BME280;69153;47.918;11.428;2023-11-21T09:31:13;94745.72;;;10.29;58.59
79686;BME280;69153;47.918;11.428;2023-11-21T09:33:44;94746.38;;;10.33;58.91
79686;BME280;69153;47.918;11.428;2023-11-21T09:36:11;94753.56;;;10.45;58.63
79686;BME280;69153;47.918;11.428;2023-11-21T09:38:38;94750.59;;;10.43;58.03
79686;BME280;69153;47.918;11.428;2023-11-21T09:41:14;94750.09;;;10.23;58.55
79686;BME280;69153;47.918;11.428;2023-11-21T09:43:45;94755.06;;;10.33;59.21
79686;BME280;69153;47.918;11.428;2023-11-21T09:46:13;94750.94;;;10.20;58.53
79686;BME280;69153;47.918;11.428;2023-11-21T09:48:50;94751.16;;;10.38;58.85
79686;BME280;69153;47.918;11.428;2023-11-21T09:51:19;94747.53;;;10.45;58.25
79686;BME280;69153;47.918;11.428;2023-11-21T09:53:50;94752.59;;;10.52;58.63
79686;BME280;69153;47.918;11.428;2023-11-21T09:56:17;94744.00;;;10.60;58.35
79686;BME280;69153;47.918;11.428;2023-11-21T09:58:51;94744.84;;;10.70;58.35
79686;BME280;69153;47.918;11.428;2023-11-21T10:01:18;94745.38;;;10.65;58.57
79686;BME280;69153;47.918;11.428;2023-11-21T10:03:44;94736.81;;;10.61;57.43
79686;BME280;69153;47.918;11.428;2023-11-21T10:06:12;94742.63;;;10.56;58.43
79686;BME280;69153;47.918;11.428;2023-11-21T10:08:40;94738.91;;;10.53;58.36
79686;BME280;69153;47.918;11.428;2023-11-21T10:11:08;94738.59;;;10.64;58.14
79686;BME280;69153;47.918;11.428;2023-11-21T10:13:37;94743.44;;;10.65;58.80
79686;BME280;69153;47.918;11.428;2023-11-21T10:16:06;94742.94;;;10.70;57.93
79686;BME280;69153;47.918;11.428;2023-11-21T10:18:33;94741.72;;;10.84;58.70
79686;BME280;69153;47.918;11.428;2023-11-21T10:21:00;94743.59;;;10.96;57.91
79686;BME280;69153;47.918;11.428;2023-11-21T10:23:27;94742.38;;;10.88;57.43
79686;BME280;69153;47.918;11.428;2023-11-21T10:25:53;94742.22;;;10.92;56.89
79686;BME280;69153;47.918;11.428;2023-11-21T10:28:20;94742.31;;;11.01;57.35
79686;BME280;69153;47.918;11.428;2023-11-21T10:30:46;94746.03;;;10.91;57.18
79686;BME280;69153;47.918;11.428;2023-11-21T10:33:11;94746.59;;;10.86;56.98
79686;BME280;69153;47.918;11.428;2023-11-21T10:35:44;94741.47;;;10.91;57.00
79686;BME280;69153;47.918;11.428;2023-11-21T10:38:16;94741.69;;;10.97;56.92
79686;BME280;69153;47.918;11.428;2023-11-21T10:40:42;94742.84;;;10.96;56.48
79686;BME280;69153;47.918;11.428;2023-11-21T10:43:11;94742.69;;;10.90;56.48
79686;BME280;69153;47.918;11.428;2023-11-21T10:45:39;94738.94;;;11.00;56.54
79686;BME280;69153;47.918;11.428;2023-11-21T10:48:06;94746.88;;;11.00;56.77
79686;BME280;69153;47.918;11.428;2023-11-21T10:50:33;94740.31;;;10.92;56.90
79686;BME280;69153;47.918;11.428;2023-11-21T10:53:01;94741.63;;;10.88;56.38
79686;BME280;69153;47.918;11.428;2023-11-21T10:55:27;94741.63;;;10.88;56.82
79686;BME280;69153;47.918;11.428;2023-11-21T10:57:54;94741.38;;;10.95;56.70
79686;BME280;69153;47.918;11.428;2023-11-21T11:00:22;94742.75;;;10.99;57.30
79686;BME280;69153;47.918;11.428;2023-11-21T11:02:52;94744.63;;;11.12;56.98
79686;BME280;69153;47.918;11.428;2023-11-21T11:05:23;94744.44;;;11.28;56.33
79686;BME280;69153;47.918;11.428;2023-11-21T11:08:01;94735.91;;;11.33;55.95
79686;BME280;69153;47.918;11.428;2023-11-21T11:10:29;94734.25;;;11.48;54.73
79686;BME280;69153;47.918;11.428;2023-11-21T11:12:56;94735.53;;;11.43;55.53
79686;BME280;69153;47.918;11.428;2023-11-21T11:15:23;94738.88;;;11.35;55.35
79686;BME280;69153;47.918;11.428;2023-11-21T11:17:48;94730.91;;;11.57;55.66
79686;BME280;69153;47.918;11.428;2023-11-21T11:20:16;94733.06;;;11.71;54.35
79686;BME280;69153;47.918;11.428;2023-11-21T11:23:08;94736.03;;;11.73;54.63
79686;BME280;69153;47.918;11.428;2023-11-21T11:28:35;94729.66;;;11.70;55.34
79686;BME280;69153;47.918;11.428;2023-11-21T11:31:27;94737.72;;;11.79;55.43
79686;BME280;69153;47.918;11.428;2023-11-21T11:34:14;94734.91;;;11.83;54.73
79686;BME280;69153;47.918;11.428;2023-11-21T11:36:58;94729.03;;;11.79;54.98
79686;BME280;69153;47.918;11.428;2023-11-21T11:41:58;94728.06;;;11.73;54.97
79686;BME280;69153;47.918;11.428;2023-11-21T11:44:47;94731.22;;;11.59;54.63
79686;BME280;69153;47.918;11.428;2023-11-21T11:47:23;94726.94;;;11.52;54.95
79686;BME280;69153;47.918;11.428;2023-11-21T11:50:10;94725.75;;;11.53;55.49
79686;BME280;69153;47.918;11.428;2023-11-21T11:52:51;94727.66;;;11.53;55.06
79686;BME280;69153;47.918;11.428;2023-11-21T11:55:20;94724.59;;;11.54;55.42
79686;BME280;69153;47.918;11.428;2023-11-21T11:57:48;94726.78;;;11.56;55.69
79686;BME280;69153;47.918;11.428;2023-11-21T12:02:59;94723.84;;;11.32;55.34
79686;BME280;69153;47.918;11.428;2023-11-21T12:05:30;94728.22;;;11.26;55.89
79686;BME280;69153;47.918;11.428;2023-11-21T12:08:05;94720.56;;;11.06;56.41
79686;BME280;69153;47.918;11.428;2023-11-21T12:10:33;94720.72;;;10.90;56.84
79686;BME280;69153;47.918;11.428;2023-11-21T12:13:11;94727.19;;;10.89;57.55
79686;BME280;69153;47.918;11.428;2023-11-21T12:15:39;94730.78;;;10.95;57.37
79686;BME280;69153;47.918;11.428;2023-11-21T12:18:06;94730.81;;;10.82;57.97
79686;BME280;69153;47.918;11.428;2023-11-21T12:20:33;94727.84;;;10.80;58.12
79686;BME280;69153;47.918;11.428;2023-11-21T12:23:04;94734.94;;;10.83;58.26
79686;BME280;69153;47.918;11.428;2023-11-21T12:25:31;94733.94;;;11.02;58.27
79686;BME280;69153;47.918;11.428;2023-11-21T12:27:59;94733.56;;;10.79;58.33
79686;BME280;69153;47.918;11.428;2023-11-21T12:30:27;94735.09;;;10.67;58.69
79686;BME280;69153;47.918;11.428;2023-11-21T12:32:57;94733.81;;;10.71;59.22
79686;BME280;69153;47.918;11.428;2023-11-21T12:35:28;94731.09;;;10.97;58.54
79686;BME280;69153;47.918;11.428;2023-11-21T12:37:55;94732.22;;;11.08;58.19
79686;BME280;69153;47.918;11.428;2023-11-21T12:40:25;94736.22;;;11.13;57.87
79686;BME280;69153;47.918;11.428;2023-11-21T12:42:59;94732.63;;;11.07;57.71
79686;BME280;69153;47.918;11.428;2023-11-21T12:45:28;94728.13;;;10.95;58.31
79686;BME280;69153;47.918;11.428;2023-11-21T12:48:05;94734.38;;;11.01;58.37
79686;BME280;69153;47.918;11.428;2023-11-21T12:50:37;94735.66;;;11.18;57.91
79686;BME280;69153;47.918;11.428;2023-11-21T12:53:08;94729.75;;;11.14;58.08
79686;BME280;69153;47.918;11.428;2023-11-21T12:55:35;94732.63;;;11.07;58.50
79686;BME280;69153;47.918;11.428;2023-11-21T12:58:04;94734.50;;;11.19;57.87
79686;BME280;69153;47.918;11.428;2023-11-21T13:00:41;94732.28;;;11.39;57.17
79686;BME280;69153;47.918;11.428;2023-11-21T13:03:09;94737.34;;;11.03;58.14